sensor_id;sensor_type;location;lat;lon;timestamp;P1;durP1;ratioP1;P2;durP2;ratioP2
11988;SDS011;6054;50.966;7.094;2023-03-08T00:00:06;17.70;;;7.73;;
11988;SDS011;6054;50.966;7.094;2023-03-08T00:02:35;12.83;;;7.97;;
11988;SDS011;6054;50.966;7.094;2023-03-08T00:05:02;16.07;;;7.83;;
11988;SDS011;6054;50.966;7.094;2023-03-08T00:07:29;14.20;;;7.87;;
11988;SDS011;6054;50.966;7.094;2023-03-08T00:09:56;15.07;;;8.07;;
11988;SDS011;6054;50.966;7.094;2023-03-08T00:12:24;16.13;;;8.03;;
11988;SDS011;6054;50.966;7.094;2023-03-08T00:14:50;21.03;;;8.80;;
11988;SDS011;6054;50.966;7.094;2023-03-08T00:17:17;19.50;;;7.83;;
11988;SDS011;6054;50.966;7.094;2023-03-08T00:19:44;19.00;;;8.40;;
11988;SDS011;6054;50.966;7.094;2023-03-08T00:22:11;13.67;;;8.50;;
11988;SDS011;6054;50.966;7.094;2023-03-08T00:24:38;23.40;;;9.43;;
11988;SDS011;6054;50.966;7.094;2023-03-08T00:27:05;13.53;;;8.83;;
11988;SDS011;6054;50.966;7.094;2023-03-08T00:29:33;18.07;;;8.63;;
11988;SDS011;6054;50.966;7.094;2023-03-08T00:32:00;15.77;;;8.43;;
11988;SDS011;6054;50.966;7.094;2023-03-08T00:34:26;14.13;;;8.60;;
11988;SDS011;6054;50.966;7.094;2023-03-08T00:36:53;15.67;;;8.17;;
11988;SDS011;6054;50.966;7.094;2023-03-08T00:39:20;18.43;;;8.93;;
11988;SDS011;6054;50.966;7.094;2023-03-08T00:41:47;15.53;;;8.30;;
11988;SDS011;6054;50.966;7.094;2023-03-08T00:44:13;13.30;;;8.30;;
11988;SDS011;6054;50.966;7.094;2023-03-08T00:46:41;14.73;;;9.23;;
11988;SDS011;6054;50.966;7.094;2023-03-08T00:49:13;13.33;;;8.47;;
11988;SDS011;6054;50.966;7.094;2023-03-08T00:51:40;19.10;;;9.00;;
11988;SDS011;6054;50.966;7.094;2023-03-08T00:54:06;15.83;;;8.57;;
11988;SDS011;6054;50.966;7.094;2023-03-08T00:56:33;19.33;;;8.77;;
11988;SDS011;6054;50.966;7.094;2023-03-08T00:59:00;16.60;;;8.97;;
11988;SDS011;6054;50.966;7.094;2023-03-08T01:01:27;16.60;;;9.63;;
11988;SDS011;6054;50.966;7.094;2023-03-08T01:03:55;17.13;;;9.33;;
11988;SDS011;6054;50.966;7.094;2023-03-08T01:06:22;14.30;;;8.50;;
11988;SDS011;6054;50.966;7.094;2023-03-08T01:08:49;12.27;;;8.53;;
11988;SDS011;6054;50.966;7.094;2023-03-08T01:11:16;11.37;;;7.53;;
11988;SDS011;6054;50.966;7.094;2023-03-08T01:13:45;12.37;;;7.37;;
11988;SDS011;6054;50.966;7.094;2023-03-08T01:16:16;17.43;;;8.27;;
11988;SDS011;6054;50.966;7.094;2023-03-08T01:18:44;16.07;;;8.03;;
11988;SDS011;6054;50.966;7.094;2023-03-08T01:21:12;14.37;;;7.73;;
11988;SDS011;6054;50.966;7.094;2023-03-08T01:23:39;17.43;;;8.50;;
11988;SDS011;6054;50.966;7.094;2023-03-08T01:26:06;18.87;;;8.47;;
11988;SDS011;6054;50.966;7.094;2023-03-08T01:28:35;14.83;;;7.80;;
11988;SDS011;6054;50.966;7.094;2023-03-08T01:31:02;20.70;;;8.60;;
11988;SDS011;6054;50.966;7.094;2023-03-08T01:33:31;13.57;;;8.47;;
11988;SDS011;6054;50.966;7.094;2023-03-08T01:35:58;19.73;;;8.70;;
11988;SDS011;6054;50.966;7.094;2023-03-08T01:38:28;16.63;;;8.77;;
11988;SDS011;6054;50.966;7.094;2023-03-08T01:40:55;14.23;;;8.10;;
11988;SDS011;6054;50.966;7.094;2023-03-08T01:43:23;17.70;;;8.83;;
11988;SDS011;6054;50.966;7.094;2023-03-08T01:46:00;13.50;;;8.77;;
11988;SDS011;6054;50.966;7.094;2023-03-08T01:48:30;16.17;;;8.80;;
11988;SDS011;6054;50.966;7.094;2023-03-08T01:51:00;15.27;;;8.77;;
11988;SDS011;6054;50.966;7.094;2023-03-08T01:53:30;16.93;;;8.93;;
11988;SDS011;6054;50.966;7.094;2023-03-08T01:55:58;16.33;;;8.77;;
11988;SDS011;6054;50.966;7.094;2023-03-08T01:58:25;20.07;;;9.47;;
11988;SDS011;6054;50.966;7.094;2023-03-08T02:00:52;15.73;;;8.30;;
11988;SDS011;6054;50.966;7.094;2023-03-08T02:03:19;17.57;;;8.33;;
11988;SDS011;6054;50.966;7.094;2023-03-08T02:05:46;14.70;;;8.63;;
11988;SDS011;6054;50.966;7.094;2023-03-08T02:08:15;15.20;;;8.90;;
11988;SDS011;6054;50.966;7.094;2023-03-08T02:10:43;16.77;;;8.43;;
11988;SDS011;6054;50.966;7.094;2023-03-08T02:13:10;20.00;;;8.73;;
11988;SDS011;6054;50.966;7.094;2023-03-08T02:15:38;21.67;;;9.53;;
11988;SDS011;6054;50.966;7.094;2023-03-08T02:18:05;15.00;;;8.10;;
11988;SDS011;6054;50.966;7.094;2023-03-08T02:20:32;16.83;;;8.90;;
11988;SDS011;6054;50.966;7.094;2023-03-08T02:23:09;19.03;;;8.53;;
11988;SDS011;6054;50.966;7.094;2023-03-08T02:25:37;15.60;;;7.50;;
11988;SDS011;6054;50.966;7.094;2023-03-08T02:28:05;19.30;;;8.27;;
11988;SDS011;6054;50.966;7.094;2023-03-08T02:30:33;19.33;;;7.87;;
11988;SDS011;6054;50.966;7.094;2023-03-08T02:33:02;19.30;;;8.37;;
11988;SDS011;6054;50.966;7.094;2023-03-08T02:35:29;13.37;;;8.03;;
11988;SDS011;6054;50.966;7.094;2023-03-08T02:37:55;15.57;;;7.87;;
11988;SDS011;6054;50.966;7.094;2023-03-08T02:40:24;15.47;;;7.80;;
11988;SDS011;6054;50.966;7.094;2023-03-08T02:42:51;15.87;;;7.80;;
11988;SDS011;6054;50.966;7.094;2023-03-08T02:45:20;16.23;;;8.23;;
11988;SDS011;6054;50.966;7.094;2023-03-08T02:47:46;14.70;;;7.93;;
11988;SDS011;6054;50.966;7.094;2023-03-08T02:50:13;15.90;;;8.30;;
11988;SDS011;6054;50.966;7.094;2023-03-08T02:52:40;14.30;;;8.37;;
11988;SDS011;6054;50.966;7.094;2023-03-08T02:55:07;15.37;;;7.60;;
11988;SDS011;6054;50.966;7.094;2023-03-08T02:57:36;14.00;;;7.37;;
11988;SDS011;6054;50.966;7.094;2023-03-08T03:00:03;15.60;;;8.37;;
11988;SDS011;6054;50.966;7.094;2023-03-08T03:02:31;14.57;;;7.43;;
11988;SDS011;6054;50.966;7.094;2023-03-08T03:04:57;13.67;;;7.40;;
11988;SDS011;6054;50.966;7.094;2023-03-08T03:07:24;14.50;;;7.90;;
11988;SDS011;6054;50.966;7.094;2023-03-08T03:09:51;14.63;;;7.07;;
11988;SDS011;6054;50.966;7.094;2023-03-08T03:12:18;17.73;;;7.77;;
11988;SDS011;6054;50.966;7.094;2023-03-08T03:14:46;16.10;;;7.97;;
11988;SDS011;6054;50.966;7.094;2023-03-08T03:17:13;18.53;;;7.93;;
11988;SDS011;6054;50.966;7.094;2023-03-08T03:19:39;22.80;;;8.17;;
11988;SDS011;6054;50.966;7.094;2023-03-08T03:22:06;15.90;;;7.77;;
11988;SDS011;6054;50.966;7.094;2023-03-08T03:24:33;16.87;;;7.73;;
11988;SDS011;6054;50.966;7.094;2023-03-08T03:26:59;14.80;;;7.73;;
11988;SDS011;6054;50.966;7.094;2023-03-08T03:29:26;14.63;;;7.87;;
11988;SDS011;6054;50.966;7.094;2023-03-08T03:31:54;18.17;;;7.63;;
11988;SDS011;6054;50.966;7.094;2023-03-08T03:34:21;16.17;;;7.90;;
11988;SDS011;6054;50.966;7.094;2023-03-08T03:36:48;16.23;;;7.93;;
11988;SDS011;6054;50.966;7.094;2023-03-08T03:39:15;19.20;;;8.27;;
11988;SDS011;6054;50.966;7.094;2023-03-08T03:41:41;15.93;;;8.07;;
11988;SDS011;6054;50.966;7.094;2023-03-08T03:44:08;13.10;;;7.13;;
11988;SDS011;6054;50.966;7.094;2023-03-08T03:46:35;14.80;;;7.90;;
11988;SDS011;6054;50.966;7.094;2023-03-08T03:49:03;15.10;;;7.30;;
11988;SDS011;6054;50.966;7.094;2023-03-08T03:51:30;18.17;;;7.47;;
11988;SDS011;6054;50.966;7.094;2023-03-08T03:53:57;16.40;;;8.00;;
11988;SDS011;6054;50.966;7.094;2023-03-08T03:56:24;21.87;;;7.90;;
11988;SDS011;6054;50.966;7.094;2023-03-08T03:58:52;12.97;;;7.13;;
11988;SDS011;6054;50.966;7.094;2023-03-08T04:01:20;17.67;;;7.87;;
11988;SDS011;6054;50.966;7.094;2023-03-08T04:03:48;15.87;;;7.47;;
11988;SDS011;6054;50.966;7.094;2023-03-08T04:06:17;14.07;;;7.37;;
11988;SDS011;6054;50.966;7.094;2023-03-08T04:08:46;16.87;;;7.50;;
11988;SDS011;6054;50.966;7.094;2023-03-08T04:11:13;16.63;;;7.77;;
11988;SDS011;6054;50.966;7.094;2023-03-08T04:13:42;17.27;;;7.90;;
11988;SDS011;6054;50.966;7.094;2023-03-08T04:16:10;13.70;;;7.63;;
11988;SDS011;6054;50.966;7.094;2023-03-08T04:18:37;20.03;;;8.00;;
11988;SDS011;6054;50.966;7.094;2023-03-08T04:21:04;18.60;;;7.83;;
11988;SDS011;6054;50.966;7.094;2023-03-08T04:23:33;17.13;;;8.07;;
11988;SDS011;6054;50.966;7.094;2023-03-08T04:26:00;19.90;;;7.50;;
11988;SDS011;6054;50.966;7.094;2023-03-08T04:28:28;15.07;;;8.07;;
11988;SDS011;6054;50.966;7.094;2023-03-08T04:30:54;13.30;;;6.80;;
11988;SDS011;6054;50.966;7.094;2023-03-08T04:33:22;16.53;;;7.40;;
11988;SDS011;6054;50.966;7.094;2023-03-08T04:35:49;15.17;;;6.73;;
11988;SDS011;6054;50.966;7.094;2023-03-08T04:38:16;18.43;;;7.57;;
11988;SDS011;6054;50.966;7.094;2023-03-08T04:40:47;14.93;;;6.57;;
11988;SDS011;6054;50.966;7.094;2023-03-08T04:43:29;12.53;;;6.80;;
11988;SDS011;6054;50.966;7.094;2023-03-08T04:45:56;16.53;;;7.53;;
11988;SDS011;6054;50.966;7.094;2023-03-08T04:48:22;17.60;;;6.90;;
11988;SDS011;6054;50.966;7.094;2023-03-08T04:50:51;15.00;;;7.43;;
11988;SDS011;6054;50.966;7.094;2023-03-08T04:53:18;18.73;;;7.57;;
11988;SDS011;6054;50.966;7.094;2023-03-08T04:55:46;13.40;;;6.67;;
11988;SDS011;6054;50.966;7.094;2023-03-08T04:58:13;17.00;;;7.70;;
11988;SDS011;6054;50.966;7.094;2023-03-08T05:00:40;14.10;;;7.37;;
11988;SDS011;6054;50.966;7.094;2023-03-08T05:03:07;14.73;;;7.03;;
11988;SDS011;6054;50.966;7.094;2023-03-08T05:05:34;15.20;;;6.87;;
11988;SDS011;6054;50.966;7.094;2023-03-08T05:08:01;13.80;;;7.07;;
11988;SDS011;6054;50.966;7.094;2023-03-08T05:10:29;13.93;;;6.77;;
11988;SDS011;6054;50.966;7.094;2023-03-08T05:12:57;13.97;;;6.87;;
11988;SDS011;6054;50.966;7.094;2023-03-08T05:15:24;14.30;;;6.73;;
11988;SDS011;6054;50.966;7.094;2023-03-08T05:17:51;12.73;;;6.90;;
11988;SDS011;6054;50.966;7.094;2023-03-08T05:20:18;12.30;;;6.57;;
11988;SDS011;6054;50.966;7.094;2023-03-08T05:22:45;12.13;;;6.20;;
11988;SDS011;6054;50.966;7.094;2023-03-08T05:25:11;11.03;;;5.73;;
11988;SDS011;6054;50.966;7.094;2023-03-08T05:27:38;15.47;;;6.33;;
11988;SDS011;6054;50.966;7.094;2023-03-08T05:30:07;15.03;;;6.10;;
11988;SDS011;6054;50.966;7.094;2023-03-08T05:32:35;12.87;;;6.37;;
11988;SDS011;6054;50.966;7.094;2023-03-08T05:35:02;8.67;;;5.67;;
11988;SDS011;6054;50.966;7.094;2023-03-08T05:37:28;12.23;;;6.00;;
11988;SDS011;6054;50.966;7.094;2023-03-08T05:39:55;11.07;;;6.03;;
11988;SDS011;6054;50.966;7.094;2023-03-08T05:42:22;13.40;;;6.33;;
11988;SDS011;6054;50.966;7.094;2023-03-08T05:44:49;11.83;;;6.50;;
11988;SDS011;6054;50.966;7.094;2023-03-08T05:47:17;10.87;;;6.10;;
11988;SDS011;6054;50.966;7.094;2023-03-08T05:49:43;11.37;;;6.83;;
11988;SDS011;6054;50.966;7.094;2023-03-08T05:52:10;12.60;;;6.23;;
11988;SDS011;6054;50.966;7.094;2023-03-08T05:54:37;9.73;;;6.07;;
11988;SDS011;6054;50.966;7.094;2023-03-08T05:57:04;12.30;;;6.60;;
11988;SDS011;6054;50.966;7.094;2023-03-08T05:59:31;10.53;;;6.67;;
11988;SDS011;6054;50.966;7.094;2023-03-08T06:01:58;12.77;;;6.83;;
11988;SDS011;6054;50.966;7.094;2023-03-08T06:04:26;16.47;;;6.83;;
11988;SDS011;6054;50.966;7.094;2023-03-08T06:06:52;12.27;;;6.73;;
11988;SDS011;6054;50.966;7.094;2023-03-08T06:09:19;12.30;;;6.83;;
11988;SDS011;6054;50.966;7.094;2023-03-08T06:11:46;11.27;;;6.50;;
11988;SDS011;6054;50.966;7.094;2023-03-08T06:14:13;10.50;;;6.10;;
11988;SDS011;6054;50.966;7.094;2023-03-08T06:16:39;10.83;;;6.10;;
11988;SDS011;6054;50.966;7.094;2023-03-08T06:19:06;10.87;;;6.00;;
11988;SDS011;6054;50.966;7.094;2023-03-08T06:21:34;10.40;;;5.57;;
11988;SDS011;6054;50.966;7.094;2023-03-08T06:24:01;11.43;;;6.50;;
11988;SDS011;6054;50.966;7.094;2023-03-08T06:26:28;9.73;;;6.47;;
11988;SDS011;6054;50.966;7.094;2023-03-08T06:28:55;7.23;;;5.60;;
11988;SDS011;6054;50.966;7.094;2023-03-08T06:31:21;9.47;;;5.60;;
11988;SDS011;6054;50.966;7.094;2023-03-08T06:33:48;7.13;;;5.50;;
11988;SDS011;6054;50.966;7.094;2023-03-08T06:36:16;7.57;;;5.23;;
11988;SDS011;6054;50.966;7.094;2023-03-08T06:38:45;8.20;;;5.43;;
11988;SDS011;6054;50.966;7.094;2023-03-08T06:41:13;7.53;;;4.80;;
11988;SDS011;6054;50.966;7.094;2023-03-08T06:43:41;8.17;;;4.43;;
11988;SDS011;6054;50.966;7.094;2023-03-08T06:46:09;6.17;;;5.00;;
11988;SDS011;6054;50.966;7.094;2023-03-08T06:48:37;6.53;;;4.97;;
11988;SDS011;6054;50.966;7.094;2023-03-08T06:51:04;5.30;;;4.63;;
11988;SDS011;6054;50.966;7.094;2023-03-08T06:53:32;7.30;;;4.30;;
11988;SDS011;6054;50.966;7.094;2023-03-08T06:56:01;6.67;;;4.03;;
11988;SDS011;6054;50.966;7.094;2023-03-08T06:58:28;6.80;;;4.43;;
11988;SDS011;6054;50.966;7.094;2023-03-08T07:00:55;7.60;;;4.33;;
11988;SDS011;6054;50.966;7.094;2023-03-08T07:03:23;3.80;;;3.40;;
11988;SDS011;6054;50.966;7.094;2023-03-08T07:05:51;7.57;;;4.50;;
11988;SDS011;6054;50.966;7.094;2023-03-08T07:08:18;5.90;;;4.27;;
11988;SDS011;6054;50.966;7.094;2023-03-08T07:10:44;5.90;;;4.10;;
11988;SDS011;6054;50.966;7.094;2023-03-08T07:13:12;5.13;;;3.90;;
11988;SDS011;6054;50.966;7.094;2023-03-08T07:15:39;7.10;;;4.00;;
11988;SDS011;6054;50.966;7.094;2023-03-08T07:18:06;6.00;;;4.53;;
11988;SDS011;6054;50.966;7.094;2023-03-08T07:20:33;6.10;;;4.30;;
11988;SDS011;6054;50.966;7.094;2023-03-08T07:23:00;6.90;;;4.70;;
11988;SDS011;6054;50.966;7.094;2023-03-08T07:25:27;6.13;;;4.23;;
11988;SDS011;6054;50.966;7.094;2023-03-08T07:27:53;6.60;;;4.10;;
11988;SDS011;6054;50.966;7.094;2023-03-08T07:30:22;6.60;;;4.30;;
11988;SDS011;6054;50.966;7.094;2023-03-08T07:32:48;6.87;;;5.10;;
11988;SDS011;6054;50.966;7.094;2023-03-08T07:35:18;7.70;;;5.33;;
11988;SDS011;6054;50.966;7.094;2023-03-08T07:37:44;7.03;;;4.83;;
11988;SDS011;6054;50.966;7.094;2023-03-08T07:40:13;6.63;;;4.63;;
11988;SDS011;6054;50.966;7.094;2023-03-08T07:42:41;5.33;;;4.83;;
11988;SDS011;6054;50.966;7.094;2023-03-08T07:45:09;7.20;;;5.27;;
11988;SDS011;6054;50.966;7.094;2023-03-08T07:47:38;8.47;;;4.70;;
11988;SDS011;6054;50.966;7.094;2023-03-08T07:50:05;6.80;;;5.07;;
11988;SDS011;6054;50.966;7.094;2023-03-08T07:52:33;5.77;;;4.97;;
11988;SDS011;6054;50.966;7.094;2023-03-08T07:55:00;7.00;;;5.50;;
11988;SDS011;6054;50.966;7.094;2023-03-08T07:57:27;5.63;;;4.77;;
11988;SDS011;6054;50.966;7.094;2023-03-08T07:59:54;8.37;;;5.50;;
11988;SDS011;6054;50.966;7.094;2023-03-08T08:02:20;5.20;;;4.70;;
11988;SDS011;6054;50.966;7.094;2023-03-08T08:04:48;5.60;;;4.97;;
11988;SDS011;6054;50.966;7.094;2023-03-08T08:07:15;7.47;;;5.30;;
11988;SDS011;6054;50.966;7.094;2023-03-08T08:09:42;7.37;;;5.43;;
11988;SDS011;6054;50.966;7.094;2023-03-08T08:12:09;9.23;;;5.17;;
11988;SDS011;6054;50.966;7.094;2023-03-08T08:14:36;6.13;;;5.53;;
11988;SDS011;6054;50.966;7.094;2023-03-08T08:17:03;5.47;;;4.90;;
11988;SDS011;6054;50.966;7.094;2023-03-08T08:19:30;6.90;;;6.10;;
11988;SDS011;6054;50.966;7.094;2023-03-08T08:21:58;7.17;;;5.37;;
11988;SDS011;6054;50.966;7.094;2023-03-08T08:24:25;6.23;;;5.23;;
11988;SDS011;6054;50.966;7.094;2023-03-08T08:26:52;9.00;;;5.50;;
11988;SDS011;6054;50.966;7.094;2023-03-08T08:29:20;8.03;;;5.43;;
11988;SDS011;6054;50.966;7.094;2023-03-08T08:31:46;5.97;;;5.30;;
11988;SDS011;6054;50.966;7.094;2023-03-08T08:34:13;7.60;;;5.50;;
11988;SDS011;6054;50.966;7.094;2023-03-08T08:36:40;7.53;;;6.33;;
11988;SDS011;6054;50.966;7.094;2023-03-08T08:39:09;9.43;;;6.37;;
11988;SDS011;6054;50.966;7.094;2023-03-08T08:41:36;8.90;;;6.20;;
11988;SDS011;6054;50.966;7.094;2023-03-08T08:44:03;10.63;;;6.13;;
11988;SDS011;6054;50.966;7.094;2023-03-08T08:46:30;7.20;;;6.17;;
11988;SDS011;6054;50.966;7.094;2023-03-08T08:48:59;8.47;;;6.03;;
11988;SDS011;6054;50.966;7.094;2023-03-08T08:51:26;9.00;;;6.10;;
11988;SDS011;6054;50.966;7.094;2023-03-08T08:53:53;7.87;;;5.83;;
11988;SDS011;6054;50.966;7.094;2023-03-08T08:56:23;7.50;;;6.00;;
11988;SDS011;6054;50.966;7.094;2023-03-08T08:58:51;7.00;;;5.70;;
11988;SDS011;6054;50.966;7.094;2023-03-08T09:01:19;6.83;;;5.80;;
11988;SDS011;6054;50.966;7.094;2023-03-08T09:03:47;8.30;;;6.23;;
11988;SDS011;6054;50.966;7.094;2023-03-08T09:06:15;8.23;;;6.30;;
11988;SDS011;6054;50.966;7.094;2023-03-08T09:08:43;6.93;;;5.40;;
11988;SDS011;6054;50.966;7.094;2023-03-08T09:11:10;8.97;;;6.03;;
11988;SDS011;6054;50.966;7.094;2023-03-08T09:13:38;6.77;;;6.07;;
11988;SDS011;6054;50.966;7.094;2023-03-08T09:16:06;12.40;;;6.23;;
11988;SDS011;6054;50.966;7.094;2023-03-08T09:18:41;9.20;;;6.60;;
11988;SDS011;6054;50.966;7.094;2023-03-08T09:21:08;7.50;;;6.33;;
11988;SDS011;6054;50.966;7.094;2023-03-08T09:23:36;8.47;;;6.50;;
11988;SDS011;6054;50.966;7.094;2023-03-08T09:26:03;6.53;;;5.60;;
11988;SDS011;6054;50.966;7.094;2023-03-08T09:28:30;9.53;;;6.57;;
11988;SDS011;6054;50.966;7.094;2023-03-08T09:30:58;7.20;;;6.00;;
11988;SDS011;6054;50.966;7.094;2023-03-08T09:33:27;8.60;;;6.57;;
11988;SDS011;6054;50.966;7.094;2023-03-08T09:35:54;8.90;;;6.30;;
11988;SDS011;6054;50.966;7.094;2023-03-08T09:38:21;8.97;;;7.13;;
11988;SDS011;6054;50.966;7.094;2023-03-08T09:40:51;6.97;;;6.13;;
11988;SDS011;6054;50.966;7.094;2023-03-08T09:43:29;8.80;;;6.30;;
11988;SDS011;6054;50.966;7.094;2023-03-08T09:46:06;7.10;;;6.23;;
11988;SDS011;6054;50.966;7.094;2023-03-08T09:48:37;8.77;;;6.50;;
11988;SDS011;6054;50.966;7.094;2023-03-08T09:51:08;11.47;;;7.33;;
11988;SDS011;6054;50.966;7.094;2023-03-08T09:53:37;11.27;;;7.20;;
11988;SDS011;6054;50.966;7.094;2023-03-08T09:56:13;9.50;;;6.70;;
11988;SDS011;6054;50.966;7.094;2023-03-08T09:58:45;9.97;;;7.60;;
11988;SDS011;6054;50.966;7.094;2023-03-08T10:01:19;11.13;;;7.93;;
11988;SDS011;6054;50.966;7.094;2023-03-08T10:07:00;9.27;;;7.00;;
11988;SDS011;6054;50.966;7.094;2023-03-08T10:09:41;10.03;;;7.60;;
11988;SDS011;6054;50.966;7.094;2023-03-08T10:12:16;9.70;;;7.30;;
11988;SDS011;6054;50.966;7.094;2023-03-08T10:14:49;9.27;;;7.40;;
11988;SDS011;6054;50.966;7.094;2023-03-08T10:17:20;7.63;;;6.50;;
11988;SDS011;6054;50.966;7.094;2023-03-08T10:19:51;9.70;;;7.27;;
11988;SDS011;6054;50.966;7.094;2023-03-08T10:22:24;8.37;;;6.20;;
11988;SDS011;6054;50.966;7.094;2023-03-08T10:24:53;9.00;;;6.80;;
11988;SDS011;6054;50.966;7.094;2023-03-08T10:27:24;12.57;;;6.83;;
11988;SDS011;6054;50.966;7.094;2023-03-08T10:29:53;7.93;;;6.50;;
11988;SDS011;6054;50.966;7.094;2023-03-08T10:32:23;9.33;;;7.33;;
11988;SDS011;6054;50.966;7.094;2023-03-08T10:34:50;8.40;;;7.10;;
11988;SDS011;6054;50.966;7.094;2023-03-08T10:37:19;9.50;;;6.73;;
11988;SDS011;6054;50.966;7.094;2023-03-08T10:39:47;9.73;;;7.33;;
11988;SDS011;6054;50.966;7.094;2023-03-08T10:42:17;8.00;;;5.67;;
11988;SDS011;6054;50.966;7.094;2023-03-08T10:44:51;7.43;;;6.40;;
11988;SDS011;6054;50.966;7.094;2023-03-08T10:47:20;10.53;;;6.60;;
11988;SDS011;6054;50.966;7.094;2023-03-08T10:50:02;10.13;;;6.90;;
11988;SDS011;6054;50.966;7.094;2023-03-08T10:52:37;10.40;;;7.07;;
11988;SDS011;6054;50.966;7.094;2023-03-08T10:55:08;9.47;;;6.83;;
11988;SDS011;6054;50.966;7.094;2023-03-08T10:57:37;8.70;;;7.07;;
11988;SDS011;6054;50.966;7.094;2023-03-08T11:00:06;7.07;;;5.83;;
11988;SDS011;6054;50.966;7.094;2023-03-08T11:02:50;9.30;;;7.03;;
11988;SDS011;6054;50.966;7.094;2023-03-08T11:05:27;13.47;;;7.63;;
11988;SDS011;6054;50.966;7.094;2023-03-08T11:07:55;9.13;;;7.03;;
11988;SDS011;6054;50.966;7.094;2023-03-08T11:10:23;7.70;;;6.03;;
11988;SDS011;6054;50.966;7.094;2023-03-08T11:12:59;7.67;;;5.73;;
11988;SDS011;6054;50.966;7.094;2023-03-08T11:15:28;7.73;;;6.37;;
11988;SDS011;6054;50.966;7.094;2023-03-08T11:17:59;10.57;;;7.20;;
11988;SDS011;6054;50.966;7.094;2023-03-08T11:20:32;9.67;;;6.83;;
11988;SDS011;6054;50.966;7.094;2023-03-08T11:23:12;8.13;;;5.70;;
11988;SDS011;6054;50.966;7.094;2023-03-08T11:25:45;8.03;;;6.73;;
11988;SDS011;6054;50.966;7.094;2023-03-08T11:28:17;8.20;;;6.47;;
11988;SDS011;6054;50.966;7.094;2023-03-08T11:30:54;8.83;;;7.00;;
11988;SDS011;6054;50.966;7.094;2023-03-08T11:36:20;8.87;;;7.10;;
11988;SDS011;6054;50.966;7.094;2023-03-08T11:38:56;8.37;;;6.97;;
11988;SDS011;6054;50.966;7.094;2023-03-08T11:41:26;9.27;;;6.93;;
11988;SDS011;6054;50.966;7.094;2023-03-08T11:44:06;9.47;;;7.27;;
11988;SDS011;6054;50.966;7.094;2023-03-08T11:46:45;7.13;;;5.93;;
11988;SDS011;6054;50.966;7.094;2023-03-08T11:49:28;9.13;;;7.27;;
11988;SDS011;6054;50.966;7.094;2023-03-08T11:52:14;7.80;;;6.13;;
11988;SDS011;6054;50.966;7.094;2023-03-08T11:54:50;7.77;;;6.47;;
11988;SDS011;6054;50.966;7.094;2023-03-08T11:57:25;8.90;;;7.03;;
11988;SDS011;6054;50.966;7.094;2023-03-08T12:00:02;8.30;;;7.07;;
11988;SDS011;6054;50.966;7.094;2023-03-08T12:02:36;10.23;;;6.97;;
11988;SDS011;6054;50.966;7.094;2023-03-08T12:05:11;10.00;;;8.37;;
11988;SDS011;6054;50.966;7.094;2023-03-08T12:07:45;9.10;;;7.10;;
11988;SDS011;6054;50.966;7.094;2023-03-08T12:10:17;7.63;;;6.67;;
11988;SDS011;6054;50.966;7.094;2023-03-08T12:12:47;9.93;;;7.47;;
11988;SDS011;6054;50.966;7.094;2023-03-08T12:15:19;10.50;;;9.30;;
11988;SDS011;6054;50.966;7.094;2023-03-08T12:17:51;8.50;;;6.97;;
11988;SDS011;6054;50.966;7.094;2023-03-08T12:20:22;8.50;;;6.70;;
11988;SDS011;6054;50.966;7.094;2023-03-08T12:22:50;9.03;;;6.87;;
11988;SDS011;6054;50.966;7.094;2023-03-08T12:25:22;9.00;;;7.10;;
11988;SDS011;6054;50.966;7.094;2023-03-08T12:27:52;8.13;;;7.30;;
11988;SDS011;6054;50.966;7.094;2023-03-08T12:30:25;7.93;;;7.13;;
11988;SDS011;6054;50.966;7.094;2023-03-08T12:33:04;8.37;;;7.27;;
11988;SDS011;6054;50.966;7.094;2023-03-08T12:35:36;12.50;;;7.67;;
11988;SDS011;6054;50.966;7.094;2023-03-08T12:38:27;8.05;;;6.80;;
11988;SDS011;6054;50.966;7.094;2023-03-08T12:40:56;9.10;;;7.10;;
11988;SDS011;6054;50.966;7.094;2023-03-08T12:43:27;9.30;;;7.37;;
11988;SDS011;6054;50.966;7.094;2023-03-08T12:46:00;8.60;;;7.70;;
11988;SDS011;6054;50.966;7.094;2023-03-08T12:48:29;8.40;;;7.50;;
11988;SDS011;6054;50.966;7.094;2023-03-08T12:51:05;8.67;;;7.43;;
11988;SDS011;6054;50.966;7.094;2023-03-08T12:53:42;7.93;;;7.13;;
11988;SDS011;6054;50.966;7.094;2023-03-08T12:56:21;9.57;;;7.60;;
11988;SDS011;6054;50.966;7.094;2023-03-08T12:58:50;8.20;;;7.23;;
11988;SDS011;6054;50.966;7.094;2023-03-08T13:01:25;8.70;;;7.00;;
11988;SDS011;6054;50.966;7.094;2023-03-08T13:03:57;7.73;;;6.93;;
11988;SDS011;6054;50.966;7.094;2023-03-08T13:06:31;9.37;;;7.33;;
11988;SDS011;6054;50.966;7.094;2023-03-08T13:09:17;7.88;;;7.07;;
11988;SDS011;6054;50.966;7.094;2023-03-08T13:11:49;7.77;;;6.83;;
11988;SDS011;6054;50.966;7.094;2023-03-08T13:14:22;8.98;;;7.63;;
11988;SDS011;6054;50.966;7.094;2023-03-08T13:16:51;8.20;;;7.33;;
11988;SDS011;6054;50.966;7.094;2023-03-08T13:19:20;8.20;;;7.00;;
11988;SDS011;6054;50.966;7.094;2023-03-08T13:21:54;9.20;;;6.93;;
11988;SDS011;6054;50.966;7.094;2023-03-08T13:24:33;9.17;;;7.30;;
11988;SDS011;6054;50.966;7.094;2023-03-08T13:27:08;8.90;;;7.17;;
11988;SDS011;6054;50.966;7.094;2023-03-08T13:29:45;7.57;;;6.67;;
11988;SDS011;6054;50.966;7.094;2023-03-08T13:32:14;7.20;;;6.57;;
11988;SDS011;6054;50.966;7.094;2023-03-08T13:34:42;8.00;;;6.67;;
11988;SDS011;6054;50.966;7.094;2023-03-08T13:37:20;7.78;;;6.97;;
11988;SDS011;6054;50.966;7.094;2023-03-08T13:39:50;7.70;;;6.90;;
11988;SDS011;6054;50.966;7.094;2023-03-08T13:42:18;7.75;;;6.95;;
11988;SDS011;6054;50.966;7.094;2023-03-08T13:44:48;6.90;;;6.20;;
11988;SDS011;6054;50.966;7.094;2023-03-08T13:47:17;8.25;;;7.32;;
11988;SDS011;6054;50.966;7.094;2023-03-08T13:49:47;10.37;;;6.97;;
11988;SDS011;6054;50.966;7.094;2023-03-08T13:52:16;8.50;;;7.47;;
11988;SDS011;6054;50.966;7.094;2023-03-08T13:54:48;7.37;;;6.57;;
11988;SDS011;6054;50.966;7.094;2023-03-08T13:57:18;8.03;;;6.40;;
11988;SDS011;6054;50.966;7.094;2023-03-08T13:59:47;10.13;;;7.57;;
11988;SDS011;6054;50.966;7.094;2023-03-08T14:02:17;8.00;;;6.97;;
11988;SDS011;6054;50.966;7.094;2023-03-08T14:04:45;7.73;;;7.00;;
11988;SDS011;6054;50.966;7.094;2023-03-08T14:07:17;8.20;;;7.40;;
11988;SDS011;6054;50.966;7.094;2023-03-08T14:09:48;7.50;;;6.70;;
11988;SDS011;6054;50.966;7.094;2023-03-08T14:12:16;7.93;;;7.13;;
11988;SDS011;6054;50.966;7.094;2023-03-08T14:14:45;8.73;;;6.97;;
11988;SDS011;6054;50.966;7.094;2023-03-08T14:17:17;7.57;;;6.70;;
11988;SDS011;6054;50.966;7.094;2023-03-08T14:19:47;7.60;;;6.72;;
11988;SDS011;6054;50.966;7.094;2023-03-08T14:22:18;7.93;;;7.20;;
11988;SDS011;6054;50.966;7.094;2023-03-08T14:24:49;8.80;;;6.97;;
11988;SDS011;6054;50.966;7.094;2023-03-08T14:30:11;7.37;;;6.67;;
11988;SDS011;6054;50.966;7.094;2023-03-08T14:32:39;8.10;;;6.85;;
11988;SDS011;6054;50.966;7.094;2023-03-08T14:35:13;7.43;;;6.73;;
11988;SDS011;6054;50.966;7.094;2023-03-08T14:37:42;6.93;;;6.30;;
11988;SDS011;6054;50.966;7.094;2023-03-08T14:40:18;7.60;;;6.80;;
11988;SDS011;6054;50.966;7.094;2023-03-08T14:42:49;9.32;;;6.35;;
11988;SDS011;6054;50.966;7.094;2023-03-08T14:45:20;7.80;;;6.97;;
11988;SDS011;6054;50.966;7.094;2023-03-08T14:47:49;7.05;;;6.35;;
11988;SDS011;6054;50.966;7.094;2023-03-08T14:50:18;7.47;;;6.67;;
11988;SDS011;6054;50.966;7.094;2023-03-08T14:52:48;7.33;;;6.37;;
11988;SDS011;6054;50.966;7.094;2023-03-08T14:55:21;7.33;;;6.53;;
11988;SDS011;6054;50.966;7.094;2023-03-08T14:57:50;7.10;;;6.40;;
11988;SDS011;6054;50.966;7.094;2023-03-08T15:00:18;7.17;;;6.27;;
11988;SDS011;6054;50.966;7.094;2023-03-08T15:02:46;10.47;;;7.07;;
11988;SDS011;6054;50.966;7.094;2023-03-08T15:05:13;7.60;;;6.23;;
11988;SDS011;6054;50.966;7.094;2023-03-08T15:07:41;8.57;;;6.60;;
11988;SDS011;6054;50.966;7.094;2023-03-08T15:10:14;9.00;;;6.80;;
11988;SDS011;6054;50.966;7.094;2023-03-08T15:12:45;9.50;;;6.97;;
11988;SDS011;6054;50.966;7.094;2023-03-08T15:15:12;7.57;;;6.87;;